Time;durP1;ratioP1;P1;durP2;ratioP2;P2;SDS_P1;SDS_P2;PMS_P1;PMS_P2;Temp;Humidity;BMP_temperature;BMP_pressure;BME280_temperature;BME280_humidity;BME280_pressure;Samples;Min_cycle;Max_cycle;Signal;HPM_P1;HPM_P2
2021/03/08 00:06:16;;;;;;;14.30;5.42;;;;;;;-0.94;74.65;100136.81;1737710;81;25880;-64
2021/03/08 00:08:43;;;;;;;14.83;5.70;;;;;;;-0.98;74.63;100137.02;1726330;82;25270;-64
2021/03/08 00:11:10;;;;;;;10.58;5.20;;;;;;;-1.02;74.82;100139.34;1720984;83;25250;-64
2021/03/08 00:13:37;;;;;;;15.20;5.53;;;;;;;-1.05;74.81;100141.13;1720719;83;25326;-64
2021/03/08 00:16:04;;;;;;;12.75;5.87;;;;;;;-1.11;74.87;100139.41;1721003;83;25765;-64
2021/03/08 00:18:31;;;;;;;13.25;6.08;;;;;;;-1.15;74.95;100130.31;1681529;85;25606;-64
2021/03/08 00:20:58;;;;;;;14.35;6.55;;;;;;;-1.18;75.03;100134.23;1684132;85;25294;-65
2021/03/08 00:23:25;;;;;;;13.32;6.47;;;;;;;-1.22;75.07;100134.42;1692646;83;25367;-65
2021/03/08 00:25:51;;;;;;;12.07;6.22;;;;;;;-1.27;75.18;100140.95;1713186;83;25519;-64
2021/03/08 00:28:18;;;;;;;12.13;5.75;;;;;;;-1.29;75.23;100134.25;1712760;83;25732;-64
2021/03/08 00:30:45;;;;;;;13.43;5.95;;;;;;;-1.35;75.33;100134.14;1712954;83;25277;-65
2021/03/08 00:33:12;;;;;;;13.15;5.92;;;;;;;-1.39;75.57;100134.34;1713031;83;25352;-65
2021/03/08 00:35:39;;;;;;;12.50;5.75;;;;;;;-1.43;75.45;100129.72;1712747;83;25514;-65
2021/03/08 00:38:06;;;;;;;13.45;6.72;;;;;;;-1.47;75.52;100129.91;1713036;83;25338;-65
2021/03/08 00:40:33;;;;;;;10.80;5.37;;;;;;;-1.51;75.59;100134.88;1699000;83;26652;-65
2021/03/08 00:43:00;;;;;;;9.83;5.85;;;;;;;-1.54;75.71;100128.18;1684083;85;25575;-65
2021/03/08 00:45:26;;;;;;;11.30;5.70;;;;;;;-1.57;75.88;100129.97;1684624;85;25343;-65
2021/03/08 00:47:53;;;;;;;12.93;5.60;;;;;;;-1.60;75.99;100132.28;1684519;85;25301;-64
2021/03/08 00:50:27;;;;;;;12.23;6.78;;;;;;;-1.62;75.94;100128.53;1684093;85;25742;-65
2021/03/08 00:53:18;;;;;;;11.80;6.53;;;;;;;-1.63;75.97;100128.79;1684276;84;25807;-65
2021/03/08 00:55:44;;;;;;;12.25;6.10;;;;;;;-1.66;76.09;100126.06;1648460;86;25462;-64
2021/03/08 00:58:11;;;;;;;11.65;6.65;;;;;;;-1.70;75.96;100120.42;1648261;87;25567;-64
2021/03/08 01:00:38;;;;;;;16.60;6.55;;;;;;;-1.73;76.07;100121.41;1648543;87;25313;-64
2021/03/08 01:03:05;;;;;;;13.15;6.00;;;;;;;-1.74;76.04;100127.73;1648635;87;25369;-66
2021/03/08 01:05:32;;;;;;;18.27;7.92;;;;;;;-1.76;76.09;100117.89;1646137;87;25981;-61
2021/03/08 01:07:58;;;;;;;22.58;9.70;;;;;;;-1.79;76.19;100123.12;1646765;87;25569;-61
2021/03/08 01:10:28;;;;;;;20.37;10.32;;;;;;;-1.82;76.28;100116.97;1647417;87;25682;-63
2021/03/08 01:12:55;;;;;;;;;;;;;;;-1.83;76.29;100118.53;1650492;87;25437;-62
2021/03/08 01:15:22;;;;;;;19.32;9.80;;;;;;;-1.86;76.29;100118.45;1643722;86;25522;-61
2021/03/08 01:17:49;;;;;;;13.55;6.90;;;;;;;-1.87;76.35;100119.52;1643442;87;25740;-60
2021/03/08 01:20:20;;;;;;;14.45;7.75;;;;;;;-1.90;76.43;100115.46;1663421;83;25638;-61
2021/03/08 01:22:47;;;;;;;15.18;8.20;;;;;;;-1.91;76.68;100118.34;1709706;83;25475;-62
2021/03/08 01:25:24;;;;;;;14.40;7.65;;;;;;;-1.92;76.64;100121.52;1709666;84;25481;-62
2021/03/08 01:27:51;;;;;;;14.80;6.45;;;;;;;-1.92;76.87;100115.42;1709421;83;25478;-62
2021/03/08 01:30:25;;;;;;;12.88;7.00;;;;;;;-1.91;76.93;100113.87;1709702;83;26682;-61
2021/03/08 01:32:52;;;;;;;11.88;7.05;;;;;;;-1.90;77.16;100109.36;1709649;84;25511;-62
2021/03/08 01:35:21;;;;;;;15.95;8.00;;;;;;;-1.89;77.22;100110.46;1709428;83;25485;-62
2021/03/08 01:37:48;;;;;;;16.40;7.53;;;;;;;-1.85;77.35;100116.11;1709871;84;25520;-62
2021/03/08 01:40:19;;;;;;;12.82;7.45;;;;;;;-1.83;77.32;100102.63;1709650;83;25484;-62
2021/03/08 01:42:46;;;;;;;17.85;8.13;;;;;;;-1.82;77.14;100110.84;1709736;83;25759;-62
2021/03/08 01:45:16;;;;;;;15.78;7.70;;;;;;;-1.82;77.01;100112.17;1709850;83;25297;-61
2021/03/08 01:47:45;;;;;;;16.87;8.43;;;;;;;-1.83;76.96;100114.02;1709846;83;25492;-62
2021/03/08 01:50:33;;;;;;;14.83;7.95;;;;;;;-1.85;76.84;100119.28;1679766;85;25461;-62
2021/03/08 01:53:12;;;;;;;18.25;8.38;;;;;;;-1.81;76.87;100114.59;1849494;76;33341;-64
2021/03/08 01:55:39;;;;;;;16.37;9.15;;;;;;;-1.90;76.80;100116.79;1819412;78;25414;-61
2021/03/08 01:58:07;;;;;;;20.52;9.38;;;;;;;-1.92;76.83;100116.22;1819613;78;25889;-62
2021/03/08 02:00:35;;;;;;;21.07;9.63;;;;;;;-1.96;76.78;100117.73;1819543;78;25474;-62
2021/03/08 02:03:03;;;;;;;21.90;9.93;;;;;;;-1.98;76.73;100121.63;1819238;78;25521;-61
2021/03/08 02:05:34;;;;;;;18.17;9.33;;;;;;;-2.01;76.75;100124.23;1819477;78;25502;-62
2021/03/08 02:08:04;;;;;;;17.95;9.88;;;;;;;-2.04;76.72;100123.37;1819552;78;25449;-62
2021/03/08 02:10:34;;;;;;;17.23;9.15;;;;;;;-2.07;76.69;100126.47;1819284;78;26598;-61
2021/03/08 02:13:40;;;;;;;17.37;8.85;;;;;;;-2.11;76.69;100122.15;1818341;78;25542;-62
2021/03/08 02:16:27;;;;;;;15.13;9.35;;;;;;;-2.13;76.68;100127.38;1818450;78;25556;-63
2021/03/08 02:19:34;;;;;;;16.02;8.78;;;;;;;-2.18;76.66;100127.25;1817961;78;25855;-62
2021/03/08 02:22:22;;;;;;;20.43;8.85;;;;;;;-2.21;76.64;100140.45;1810440;77;25541;-62
2021/03/08 02:25:14;;;;;;;21.07;9.58;;;;;;;-2.27;76.69;100140.83;1773727;80;25700;-62
2021/03/08 02:28:05;;;;;;;23.35;11.50;;;;;;;-2.31;76.87;100142.86;1709829;83;25610;-62
2021/03/08 02:30:46;;;;;;;23.22;10.60;;;;;;;-2.35;76.86;100149.13;1668595;84;25370;-62
2021/03/08 02:33:26;;;;;;;18.17;9.58;;;;;;;-2.39;76.91;100146.63;1660953;86;25381;-64
2021/03/08 02:35:58;;;;;;;23.38;12.93;;;;;;;-2.43;77.02;100142.83;1710066;83;25368;-62
2021/03/08 02:38:29;;;;;;;24.92;10.60;;;;;;;-2.47;77.13;100150.92;1668751;86;25785;-63
2021/03/08 02:41:15;;;;;;;17.07;10.58;;;;;;;-2.48;77.21;100154.62;1661057;86;25209;-62
2021/03/08 02:43:51;;;;;;;25.75;12.10;;;;;;;-2.51;77.25;100155.86;1704955;84;25353;-62
2021/03/08 02:46:28;;;;;;;30.23;12.47;;;;;;;-2.55;77.34;100158.68;1709931;83;25315;-62
2021/03/08 02:48:59;;;;;;;23.10;11.20;;;;;;;-2.57;77.48;100162.08;1668754;86;25098;-62
2021/03/08 02:51:29;;;;;;;22.75;9.78;;;;;;;-2.59;77.52;100172.06;1637032;85;25840;-62
2021/03/08 02:54:00;;;;;;;16.42;8.58;;;;;;;-2.62;77.54;100164.59;1651195;86;25630;-63
2021/03/08 02:56:35;;;;;;;16.27;8.83;;;;;;;-2.66;77.64;100172.68;1651238;86;25356;-62
2021/03/08 02:59:05;;;;;;;17.67;8.95;;;;;;;-2.67;77.66;100175.85;1651247;86;25482;-62
2021/03/08 03:01:43;;;;;;;17.15;9.20;;;;;;;-2.63;77.80;100177.00;1849647;76;33613;-62
2021/03/08 03:04:12;;;;;;;19.75;8.70;;;;;;;-2.71;77.82;100177.31;1819918;78;25474;-62
2021/03/08 03:06:41;;;;;;;16.97;9.60;;;;;;;-2.72;77.90;100181.02;1819891;78;25688;-63
2021/03/08 03:09:11;;;;;;;;;;;;;;;-2.74;77.96;100181.76;1822248;78;25439;-62
2021/03/08 03:11:42;;;;;;;16.67;8.05;;;;;;;-2.75;78.11;100184.62;1819811;78;25228;-62
2021/03/08 03:14:11;;;;;;;14.68;8.08;;;;;;;-2.76;78.21;100189.61;1819614;78;25399;-62
2021/03/08 03:16:42;;;;;;;16.02;8.73;;;;;;;-2.78;78.14;100193.00;1819777;78;25444;-62
2021/03/08 03:19:10;;;;;;;20.45;9.98;;;;;;;-2.80;78.07;100196.40;1787888;78;25684;-62
2021/03/08 03:21:39;;;;;;;15.05;8.40;;;;;;;-2.82;78.08;100197.42;1819545;78;25702;-63
2021/03/08 03:24:09;;;;;;;14.10;8.13;;;;;;;-2.85;78.15;100205.80;1787989;78;25272;-63
2021/03/08 03:26:36;;;;;;;15.38;8.45;;;;;;;-2.85;78.08;100211.62;1819618;78;25340;-63
2021/03/08 03:29:05;;;;;;;11.15;7.40;;;;;;;-2.87;78.08;100207.87;1819575;78;25340;-63
2021/03/08 03:31:34;;;;;;;16.05;7.60;;;;;;;-2.88;78.13;100205.44;1819826;78;26606;-63
2021/03/08 03:34:02;;;;;;;13.48;7.20;;;;;;;-2.91;78.05;100209.35;1819719;78;35049;-64
2021/03/08 03:36:31;;;;;;;15.68;7.40;;;;;;;-2.92;78.07;100208.25;1819643;78;25448;-62
2021/03/08 03:38:59;;;;;;;14.85;8.03;;;;;;;-2.94;77.99;100211.11;1819768;78;32730;-62
2021/03/08 03:41:27;;;;;;;21.57;9.28;;;;;;;-2.95;78.15;100208.69;1819643;78;25271;-62
2021/03/08 03:43:54;;;;;;;16.90;7.37;;;;;;;-2.97;78.23;100210.75;1819838;78;25845;-62
2021/03/08 03:46:21;;;;;;;15.98;7.58;;;;;;;-2.98;78.19;100215.73;1819501;78;25302;-62
2021/03/08 03:48:48;;;;;;;12.63;7.50;;;;;;;-3.01;78.23;100208.54;1819584;78;25309;-62
2021/03/08 03:51:15;;;;;;;16.02;8.15;;;;;;;-3.01;78.24;100217.00;1819566;78;25474;-62
2021/03/08 03:53:41;;;;;;;18.67;8.63;;;;;;;-3.02;78.33;100212.20;1819728;78;25388;-62
2021/03/08 03:56:11;;;;;;;16.52;8.38;;;;;;;-3.06;78.37;100215.01;1819675;78;26834;-62
2021/03/08 03:58:45;;;;;;;16.75;8.45;;;;;;;-3.04;78.37;100216.11;1819622;78;32807;-62
2021/03/08 04:01:17;;;;;;;18.70;9.58;;;;;;;-3.06;78.43;100217.66;1819476;78;25448;-62
2021/03/08 04:04:10;;;;;;;18.57;9.55;;;;;;;-3.07;78.40;100225.29;1819473;78;25426;-62
2021/03/08 04:06:49;;;;;;;22.98;9.48;;;;;;;-3.09;78.40;100220.73;1819573;78;25306;-62
2021/03/08 04:09:18;;;;;;;20.53;9.27;;;;;;;-3.11;78.44;100226.77;1819805;78;25680;-62
2021/03/08 04:11:48;;;;;;;20.12;9.88;;;;;;;-3.13;78.47;100228.00;1819153;78;25765;-62
2021/03/08 04:14:18;;;;;;;19.73;9.50;;;;;;;-3.15;78.54;100231.39;1819060;78;29912;-62
2021/03/08 04:16:49;;;;;;;17.77;10.30;;;;;;;-3.15;78.60;100224.77;1819104;78;25463;-62
2021/03/08 04:19:22;;;;;;;19.82;9.48;;;;;;;-3.17;78.62;100227.64;1819239;78;25525;-61
2021/03/08 04:21:54;;;;;;;18.67;10.15;;;;;;;-3.17;78.62;100232.12;1819245;78;26626;-62
2021/03/08 04:24:21;;;;;;;18.17;9.05;;;;;;;-3.20;78.62;100229.42;1818936;78;25503;-61
2021/03/08 04:26:49;;;;;;;15.43;8.55;;;;;;;-3.22;78.62;100227.00;1819064;78;25341;-61
2021/03/08 04:29:18;;;;;;;16.65;8.25;;;;;;;-3.23;78.79;100234.63;1818940;78;25462;-62
2021/03/08 04:31:45;;;;;;;21.60;9.70;;;;;;;-3.24;78.88;100237.48;1787373;78;25249;-62
2021/03/08 04:34:13;;;;;;;19.40;9.10;;;;;;;-3.25;78.94;100243.30;1819025;78;26639;-62
2021/03/08 04:36:41;;;;;;;17.57;9.05;;;;;;;-3.25;78.88;100242.47;1818861;78;25432;-63
2021/03/08 04:39:11;;;;;;;17.87;8.73;;;;;;;-3.27;78.95;100243.20;1818935;78;25281;-62
2021/03/08 04:41:37;;;;;;;;;;;;;;;-3.29;78.95;100243.42;1821576;78;25348;-62
2021/03/08 04:44:07;;;;;;;17.57;8.75;;;;;;;-3.28;78.94;100248.22;1819087;78;25264;-62
2021/03/08 04:46:35;;;;;;;19.07;9.75;;;;;;;-3.31;78.98;100248.66;1818903;78;25828;-62
2021/03/08 04:49:04;;;;;;;20.30;9.68;;;;;;;-3.33;79.01;100251.52;1818852;78;25436;-62
2021/03/08 04:51:32;;;;;;;29.03;13.47;;;;;;;-3.34;78.98;100249.88;1819167;78;25222;-62
2021/03/08 04:54:02;;;;;;;22.25;12.37;;;;;;;-3.33;79.21;100250.19;1818898;78;25250;-62
2021/03/08 04:56:29;;;;;;;;;;;;;;;-3.34;78.99;100257.02;1821664;78;25460;-62
2021/03/08 04:58:56;;;;;;;25.05;10.72;;;;;;;-3.36;79.04;100257.76;1818946;78;25911;-62
2021/03/08 05:01:25;;;;;;;19.92;10.35;;;;;;;-3.37;79.06;100263.57;1822550;78;25315;-62
2021/03/08 05:03:53;;;;;;;21.87;10.53;;;;;;;-3.39;79.06;100261.14;1825404;78;25326;-62
2021/03/08 05:06:22;;;;;;;21.30;10.30;;;;;;;-3.39;79.12;100265.59;1825495;78;25483;-62
2021/03/08 05:08:50;;;;;;;20.08;9.75;;;;;;;-3.41;79.11;100267.13;1797988;78;25342;-62
2021/03/08 05:11:18;;;;;;;23.45;9.75;;;;;;;-3.40;79.15;100260.83;1825351;78;26579;-62
2021/03/08 05:13:48;;;;;;;21.68;10.20;;;;;;;-3.41;79.14;100265.02;1797625;78;25487;-62
2021/03/08 05:16:19;;;;;;;21.33;10.28;;;;;;;-3.42;79.22;100262.89;1825377;78;25419;-63
2021/03/08 05:18:46;;;;;;;23.05;10.28;;;;;;;-3.40;79.29;100271.41;1825287;78;25481;-62
2021/03/08 05:21:16;;;;;;;22.10;11.03;;;;;;;-3.42;79.28;100262.89;1825248;78;25513;-62
2021/03/08 05:23:43;;;;;;;22.40;10.05;;;;;;;-3.41;79.28;100263.17;1825339;78;25801;-62
2021/03/08 05:26:11;;;;;;;18.10;9.68;;;;;;;-3.41;79.40;100262.37;1825204;78;25496;-62
2021/03/08 05:28:39;;;;;;;22.32;11.25;;;;;;;-3.37;79.38;100274.15;1825268;78;25264;-63
2021/03/08 05:31:07;;;;;;;25.12;11.12;;;;;;;-3.36;79.39;100273.63;1825236;78;25320;-61
2021/03/08 05:33:36;;;;;;;20.72;10.00;;;;;;;-3.35;79.37;100270.77;1825234;78;25547;-63
2021/03/08 05:36:05;;;;;;;24.13;10.53;;;;;;;-3.33;79.45;100270.55;1798069;78;25695;-63
2021/03/08 05:38:34;;;;;;;19.60;10.40;;;;;;;-3.31;79.54;100275.11;1789515;80;25587;-62
2021/03/08 05:41:11;;;;;;;21.73;9.43;;;;;;;-3.30;79.51;100270.09;1789573;80;25504;-62
2021/03/08 05:43:40;;;;;;;19.23;9.08;;;;;;;-3.27;79.59;100277.59;1773491;80;25069;-61
2021/03/08 05:46:18;;;;;;;12.20;7.12;;;;;;;-3.25;79.70;100279.02;1773652;80;25485;-63
2021/03/08 05:48:59;;;;;;;18.05;9.05;;;;;;;-3.22;79.80;100272.47;1772319;80;25901;-63
2021/03/08 05:52:07;;;;;;;17.87;9.53;;;;;;;-3.17;79.81;100275.27;1726737;83;25373;-62
2021/03/08 05:55:03;;;;;;;22.30;10.20;;;;;;;-3.09;79.96;100278.16;1726896;83;25332;-63
2021/03/08 05:57:47;;;;;;;15.55;8.68;;;;;;;-3.01;80.10;100282.64;1725290;83;25344;-62
2021/03/08 06:00:49;;;;;;;16.42;8.28;;;;;;;-2.83;80.14;100289.80;1849580;76;32680;-62
2021/03/08 06:03:54;;;;;;;17.98;8.95;;;;;;;-2.79;80.20;100286.69;1799462;78;25326;-62
2021/03/08 06:06:57;;;;;;;19.30;9.15;;;;;;;-2.68;80.20;100292.59;1819278;78;25760;-63
2021/03/08 06:09:26;;;;;;;13.70;7.97;;;;;;;-2.56;80.10;100297.95;1819616;78;25376;-64
2021/03/08 06:11:58;;;;;;;18.12;8.58;;;;;;;-2.44;80.08;100310.21;1819757;78;34493;-63
2021/03/08 06:14:35;;;;;;;17.55;8.25;;;;;;;-2.34;79.91;100311.55;1819696;78;25415;-62
2021/03/08 06:17:20;;;;;;;17.30;9.25;;;;;;;-2.15;79.87;100318.94;1849629;76;33081;-61
2021/03/08 06:19:46;;;;;;;16.12;8.38;;;;;;;-2.14;79.63;100314.75;1819784;78;25538;-63
2021/03/08 06:22:15;;;;;;;20.40;9.23;;;;;;;-2.01;79.61;100325.70;1819692;78;27945;-62
2021/03/08 06:24:44;;;;;;;20.40;8.90;;;;;;;-1.91;79.49;100325.97;1819872;78;25441;-63
2021/03/08 06:27:14;;;;;;;18.80;8.95;;;;;;;-1.77;79.31;100325.27;1819831;78;25352;-62
2021/03/08 06:29:42;;;;;;;17.92;8.85;;;;;;;-1.60;79.53;100328.57;1819734;78;25427;-62
2021/03/08 06:32:11;;;;;;;14.40;7.70;;;;;;;-1.42;79.15;100329.02;1828300;77;26329;-62
2021/03/08 06:34:39;;;;;;;15.70;7.30;;;;;;;-1.29;78.75;100335.45;1831149;77;25690;-63
2021/03/08 06:37:10;;;;;;;18.20;7.40;;;;;;;-1.12;78.51;100339.56;1781515;80;25822;-63
2021/03/08 06:39:43;;;;;;;14.78;6.47;;;;;;;-0.98;78.27;100330.84;1735028;82;25344;-63
2021/03/08 06:42:17;;;;;;;15.60;8.93;;;;;;;-0.81;78.02;100340.25;1734887;82;25358;-63
2021/03/08 06:44:50;;;;;;;17.23;7.97;;;;;;;-0.61;77.90;100344.67;1734947;82;25359;-63
2021/03/08 06:47:20;;;;;;;13.22;6.03;;;;;;;-0.37;77.96;100347.30;1792813;79;26736;-64
2021/03/08 06:49:47;;;;;;;13.70;6.30;;;;;;;-0.15;77.44;100346.64;1784118;80;25489;-63
2021/03/08 06:52:18;;;;;;;10.82;5.42;;;;;;;0.07;76.84;100360.09;1800171;79;25477;-62
2021/03/08 06:55:01;;;;;;;11.70;5.40;;;;;;;0.24;75.82;100363.63;1784355;80;25459;-63
2021/03/08 07:00:13;;;;;;;11.03;6.10;;;;;;;0.65;75.50;100365.66;1816101;77;35115;-63
2021/03/08 07:02:47;;;;;;;12.73;6.58;;;;;;;0.75;74.95;100369.02;1804798;78;25750;-64
2021/03/08 07:05:24;;;;;;;12.95;5.45;;;;;;;0.95;74.22;100359.72;1730460;81;25779;-63
2021/03/08 07:08:01;;;;;;;14.65;7.10;;;;;;;1.15;74.32;100364.55;1713185;83;25642;-64
2021/03/08 07:10:38;;;;;;;14.50;6.83;;;;;;;1.38;73.99;100369.69;1717251;83;25591;-63
2021/03/08 07:13:10;;;;;;;12.33;6.22;;;;;;;1.68;73.75;100376.46;1707225;83;25572;-64
2021/03/08 07:15:56;;;;;;;14.03;6.22;;;;;;;1.97;73.33;100376.28;1711586;83;25578;-63
2021/03/08 07:18:23;;;;;;;11.25;5.78;;;;;;;2.16;71.90;100368.74;1712091;83;25768;-64
2021/03/08 07:20:54;;;;;;;15.85;5.22;;;;;;;2.39;72.13;100374.33;1710666;83;25536;-64
2021/03/08 07:23:26;;;;;;;20.32;9.63;;;;;;;2.57;71.22;100380.64;1702679;82;25492;-64
2021/03/08 07:26:14;;;;;;;19.48;9.65;;;;;;;2.71;70.54;100376.22;1723405;82;25647;-64
2021/03/08 07:28:42;;;;;;;10.75;5.80;;;;;;;2.97;70.36;100377.22;1731936;82;25650;-64
2021/03/08 07:31:13;;;;;;;8.63;5.40;;;;;;;3.22;69.36;100372.59;1732119;81;25887;-64
2021/03/08 07:33:41;;;;;;;11.38;4.45;;;;;;;3.41;68.24;100372.97;1733125;82;25601;-64
2021/03/08 07:36:15;;;;;;;13.85;5.83;;;;;;;3.52;67.06;100369.30;1683996;83;25578;-63
2021/03/08 07:38:41;;;;;;;11.45;5.87;;;;;;;3.68;67.39;100368.82;1711686;83;25654;-63
2021/03/08 07:41:13;;;;;;;10.95;5.47;;;;;;;4.00;67.19;100373.23;1711726;83;25579;-64
2021/03/08 07:43:41;;;;;;;9.60;5.20;;;;;;;4.30;66.82;100373.03;1710006;83;25721;-63
2021/03/08 07:58:07;;;;;;;8.18;4.50;;;;;;;8.62;60.45;100391.78;1743632;81;25613;-58
2021/03/08 08:00:33;;;;;;;9.73;4.58;;;;;;;9.52;57.65;100385.66;1722049;79;26681;-57
2021/03/08 08:03:37;;;;;;;10.43;4.45;;;;;;;9.95;56.78;100383.98;1756377;80;25899;-55
2021/03/08 08:06:09;;;;;;;6.42;4.17;;;;;;;10.46;56.20;100388.86;1755438;80;25520;-65
2021/03/08 08:08:49;;;;;;;8.28;4.37;;;;;;;11.01;54.75;100383.19;1781232;80;26177;-67
2021/03/08 08:11:22;;;;;;;6.37;3.70;;;;;;;11.47;53.03;100386.61;1786132;80;25280;-67
2021/03/08 08:14:00;;;;;;;7.20;4.05;;;;;;;11.59;52.47;100394.97;1786061;80;25770;-66
2021/03/08 08:16:36;;;;;;;5.70;3.62;;;;;;;11.30;51.26;100397.37;1785918;80;25579;-66
2021/03/08 08:19:10;;;;;;;6.50;4.20;;;;;;;11.29;51.58;100399.82;1786217;80;25317;-67
2021/03/08 08:21:42;;;;;;;7.83;3.65;;;;;;;10.93;50.59;100402.08;1786287;80;25536;-67
2021/03/08 08:24:17;;;;;;;7.55;3.55;;;;;;;10.74;50.93;100406.33;1785980;80;25590;-65
2021/03/08 08:26:45;;;;;;;6.45;3.37;;;;;;;10.48;50.04;100399.37;1786278;80;26713;-66
2021/03/08 08:29:12;;;;;;;5.92;3.17;;;;;;;10.40;50.09;100399.00;1786178;80;25409;-67
2021/03/08 08:32:00;;;;;;;5.75;3.20;;;;;;;10.35;49.46;100394.23;1785902;80;25520;-67
2021/03/08 08:34:43;;;;;;;5.70;2.80;;;;;;;10.38;49.50;100397.13;1786139;80;25326;-67
2021/03/08 08:37:29;;;;;;;7.53;3.15;;;;;;;10.20;48.96;100400.74;1786330;80;25647;-66
2021/03/08 08:40:04;;;;;;;5.40;2.80;;;;;;;10.22;48.68;100406.67;1786591;80;26718;-68
2021/03/08 08:42:32;;;;;;;7.12;2.87;;;;;;;10.26;48.92;100405.73;1785770;80;25355;-66
2021/03/08 08:45:04;;;;;;;7.60;2.75;;;;;;;10.14;47.16;100406.82;1785956;80;25506;-67
2021/03/08 08:47:34;;;;;;;9.40;3.35;;;;;;;10.00;48.54;100421.70;1782283;80;25457;-66
2021/03/08 08:50:08;;;;;;;6.78;2.95;;;;;;;9.80;46.31;100416.72;1786310;80;25531;-66
2021/03/08 08:52:56;;;;;;;5.62;2.55;;;;;;;9.26;46.45;100409.08;1785887;80;25767;-66
2021/03/08 08:55:40;;;;;;;6.40;3.00;;;;;;;8.71;46.79;100416.98;1786092;80;25213;-65
2021/03/08 08:58:31;;;;;;;4.92;2.70;;;;;;;8.57;48.24;100412.32;1771615;80;25602;-65
2021/03/08 09:04:03;;;;;;;2.58;1.70;;;;;;;9.54;49.04;100418.55;1746794;81;25302;-66
2021/03/08 09:06:49;;;;;;;3.05;1.67;;;;;;;9.48;47.29;100415.16;1746889;82;25916;-66
2021/03/08 09:09:39;;;;;;;3.08;2.05;;;;;;;9.49;47.39;100419.44;1746521;82;25488;-65
2021/03/08 09:12:39;;;;;;;5.15;2.10;;;;;;;9.20;46.06;100414.86;1745829;82;25666;-65
2021/03/08 09:15:10;;;;;;;7.80;1.80;;;;;;;8.93;45.90;100413.11;1746670;81;26189;-65
2021/03/08 09:17:47;;;;;;;18.52;8.30;;;;;;;8.81;46.04;100425.47;1747570;82;25309;-65
2021/03/08 09:20:19;;;;;;;8.98;3.55;;;;;;;8.55;46.08;100428.00;1757953;80;26604;-64
2021/03/08 09:22:49;;;;;;;6.10;2.98;;;;;;;8.22;45.86;100430.58;1754605;80;25623;-64
2021/03/08 09:25:29;;;;;;;4.08;1.32;;;;;;;7.88;46.31;100429.91;1746879;81;25531;-66
2021/03/08 09:28:00;;;;;;;;;;;;;;;7.70;46.43;100436.31;1750507;80;25347;-66
2021/03/08 09:30:43;;;;;;;7.05;1.60;;;;;;;7.47;46.13;100433.31;1746711;81;25283;-65
2021/03/08 09:33:17;;;;;;;4.62;2.00;;;;;;;7.29;46.78;100436.16;1768502;80;25773;-64
2021/03/08 09:43:27;;;;;;;3.83;1.50;;;;;;;6.20;46.53;100436.37;1638809;84;29269;-66
2021/03/08 09:48:55;;;;;;;5.35;3.00;;;;;;;7.15;48.61;100451.89;1833045;76;34656;-63
2021/03/08 09:51:22;;;;;;;6.87;3.02;;;;;;;7.89;49.00;100454.42;1819477;78;25350;-63
2021/03/08 09:53:54;;;;;;;8.33;2.65;;;;;;;8.75;47.08;100449.83;1823855;77;26582;-63
2021/03/08 09:56:24;;;;;;;7.22;3.40;;;;;;;9.28;46.95;100441.14;1822769;77;26157;-64
2021/03/08 09:59:08;;;;;;;4.87;2.70;;;;;;;9.68;46.42;100439.61;1818264;77;25505;-61
2021/03/08 10:01:35;;;;;;;7.80;3.22;;;;;;;9.39;45.56;100441.78;1817394;79;25489;-63
2021/03/08 10:04:03;;;;;;;8.55;3.87;;;;;;;8.94;44.87;100447.10;1817160;78;25541;-63
2021/03/08 10:06:32;;;;;;;13.30;3.52;;;;;;;8.49;45.48;100452.62;1817496;77;25776;-66
2021/03/08 10:09:22;;;;;;;5.78;2.70;;;;;;;7.99;45.50;100457.00;1817110;78;25488;-67
2021/03/08 10:11:49;;;;;;;;;;;;;;;7.50;45.85;100462.89;1819315;79;25244;-66
2021/03/08 10:14:29;;;;;;;4.30;2.50;;;;;;;6.92;45.92;100464.98;1787805;79;25572;-67
2021/03/08 10:17:10;;;;;;;11.60;2.87;;;;;;;6.40;46.27;100464.47;1817359;79;25323;-66
2021/03/08 10:19:38;;;;;;;7.03;2.95;;;;;;;6.12;48.77;100469.98;1817127;79;25748;-66
2021/03/08 10:22:06;;;;;;;5.67;2.45;;;;;;;6.55;50.19;100464.94;1817384;79;25498;-67
2021/03/08 10:24:38;;;;;;;3.92;2.25;;;;;;;7.05;50.16;100460.87;1817626;77;26308;-66
2021/03/08 10:27:13;;;;;;;3.40;2.35;;;;;;;7.52;49.09;100463.95;1820398;77;25436;-68
2021/03/08 10:33:26;;;;;;;7.87;1.45;;;;;;;7.53;46.98;100462.88;1751932;79;25675;-67
2021/03/08 10:35:54;;;;;;;3.22;1.55;;;;;;;8.16;44.34;100477.53;1724357;81;25585;-66
2021/03/08 10:38:31;;;;;;;2.17;1.27;;;;;;;7.95;44.20;100474.28;1744409;82;25560;-66
2021/03/08 10:41:02;;;;;;;3.22;1.60;;;;;;;7.37;43.01;100475.65;1744251;82;25338;-67
2021/03/08 10:43:30;;;;;;;3.83;2.05;;;;;;;6.79;43.75;100475.81;1744435;82;25593;-65
2021/03/08 10:46:00;;;;;;;35.60;16.15;;;;;;;6.36;44.85;100476.86;1744448;82;25758;-64
2021/03/08 10:48:28;;;;;;;;;;;;;;;6.63;47.51;100482.38;1746641;82;25567;-68
2021/03/08 10:50:58;;;;;;;6.10;2.20;;;;;;;7.11;47.56;100473.97;1744877;79;25426;-66
2021/03/08 11:00:45;;;;;;;3.75;1.30;;;;;;;7.64;45.21;100483.20;1708059;78;64117;-69
2021/03/08 11:03:36;;;;;;;5.80;1.77;;;;;;;7.07;44.35;100486.94;1660066;85;25711;-65
2021/03/08 11:06:06;;;;;;;3.20;1.75;;;;;;;6.69;44.63;100486.62;1642810;87;25697;-66
2021/03/08 11:08:39;;;;;;;3.10;1.50;;;;;;;6.26;44.20;100488.45;1665322;86;25617;-65
2021/03/08 11:11:21;;;;;;;2.25;1.87;;;;;;;5.83;44.47;100486.69;1656349;85;25731;-66
2021/03/08 11:13:50;;;;;;;3.85;1.92;;;;;;;5.46;45.08;100493.18;1645491;87;26266;-65
2021/03/08 11:16:17;;;;;;;3.70;1.57;;;;;;;5.09;45.97;100492.11;1652966;86;25827;-65
2021/03/08 11:18:45;;;;;;;3.05;1.72;;;;;;;4.84;46.42;100491.02;1653166;85;25625;-64
2021/03/08 11:21:31;;;;;;;8.30;3.20;;;;;;;4.65;47.29;100495.53;1653215;86;25752;-62
2021/03/08 11:24:23;;;;;;;6.20;2.35;;;;;;;4.56;48.46;100489.60;1624008;86;25442;-63
2021/03/08 11:27:17;;;;;;;15.75;2.98;;;;;;;4.58;48.62;100491.48;1649982;86;25786;-62
2021/03/08 11:30:10;;;;;;;5.35;2.37;;;;;;;4.89;50.83;100497.73;1795301;79;34639;-62
2021/03/08 11:32:40;;;;;;;4.45;1.77;;;;;;;5.46;50.65;100485.13;1777143;79;25698;-62
2021/03/08 11:35:18;;;;;;;;;;;;;;;5.82;48.71;100485.06;1806293;79;26286;-61
2021/03/08 11:37:50;;;;;;;6.20;2.40;;;;;;;5.72;47.19;100488.60;1804930;79;25715;-62
2021/03/08 11:40:20;;;;;;;29.67;12.30;;;;;;;5.45;45.93;100494.27;1723594;83;25684;-62
2021/03/08 11:42:50;;;;;;;6.10;2.75;;;;;;;5.11;46.82;100488.10;1719316;82;25593;-63
2021/03/08 11:45:18;;;;;;;;;;;;;;;4.91;46.81;100494.23;1711169;83;25656;-63
2021/03/08 11:47:51;;;;;;;4.85;2.45;;;;;;;4.74;47.00;100497.70;1739691;82;25890;-61
2021/03/08 11:50:20;;;;;;;4.83;1.90;;;;;;;4.53;46.66;100498.98;1709027;83;25891;-62
2021/03/08 11:52:48;;;;;;;3.50;2.35;;;;;;;4.32;47.66;100515.50;1716872;83;35315;-63
2021/03/08 11:55:17;;;;;;;6.83;2.60;;;;;;;4.11;47.49;100508.71;1715767;83;25816;-63
2021/03/08 11:57:51;;;;;;;3.45;2.33;;;;;;;3.93;47.95;100504.62;1739438;82;25761;-63
2021/03/08 12:02:47;;;;;;;9.35;4.47;;;;;;;3.69;48.51;100506.85;1689076;84;25943;-62
2021/03/08 12:05:15;;;;;;;8.98;4.40;;;;;;;3.59;48.57;100508.13;1643265;87;25858;-62
2021/03/08 12:07:43;;;;;;;5.87;2.60;;;;;;;3.45;48.81;100503.75;1696674;84;26388;-62
2021/03/08 12:10:13;;;;;;;11.40;2.52;;;;;;;3.34;49.19;100502.08;1644045;87;25829;-63
2021/03/08 12:12:40;;;;;;;5.40;1.82;;;;;;;3.36;50.93;100495.39;1646226;81;67573;-65
2021/03/08 12:15:11;;;;;;;3.47;1.90;;;;;;;3.81;51.71;100485.26;1648508;85;25610;-67
2021/03/08 12:17:39;;;;;;;9.40;3.30;;;;;;;4.39;52.02;100496.00;1652102;86;25698;-66
2021/03/08 12:20:10;;;;;;;5.17;2.60;;;;;;;5.03;51.18;100481.37;1652072;86;25603;-65
2021/03/08 12:22:42;;;;;;;6.45;2.42;;;;;;;5.48;49.08;100484.86;1663423;86;25266;-66
2021/03/08 12:25:11;;;;;;;5.65;2.00;;;;;;;5.43;47.82;100480.30;1652538;86;25854;-65
2021/03/08 12:27:37;;;;;;;3.52;2.00;;;;;;;5.31;47.49;100494.02;1652416;86;25570;-65
2021/03/08 12:30:07;;;;;;;3.83;2.08;;;;;;;5.16;47.05;100490.78;1652328;86;25669;-65
2021/03/08 12:32:34;;;;;;;3.50;2.20;;;;;;;5.01;47.29;100493.45;1652633;86;25637;-65
2021/03/08 12:35:00;;;;;;;3.05;1.87;;;;;;;4.82;45.83;100498.52;1696855;81;25502;-67
2021/03/08 12:37:27;;;;;;;4.17;1.82;;;;;;;4.52;46.37;100518.00;1702959;83;25795;-67